createdAt,value
2018-07-16T00:00:35.416Z,0
2018-07-16T00:01:35.423Z,0
2018-07-16T00:02:35.150Z,0
2018-07-16T00:03:35.141Z,0
2018-07-16T00:04:34.889Z,0
2018-07-16T00:05:35.392Z,0
2018-07-16T00:06:35.384Z,0
2018-07-16T00:07:34.877Z,0
2018-07-16T00:08:35.378Z,0
2018-07-16T00:09:35.374Z,0
2018-07-16T00:10:35.367Z,0
2018-07-16T00:11:35.133Z,0
2018-07-16T00:12:35.371Z,0
2018-07-16T00:13:35.366Z,0
2018-07-16T00:14:35.258Z,0
2018-07-16T00:15:35.096Z,0
2018-07-16T00:16:34.843Z,0
2018-07-16T00:17:35.340Z,0
2018-07-16T00:18:35.334Z,0
2018-07-16T00:19:35.356Z,0
2018-07-16T00:20:35.327Z,0
2018-07-16T00:21:35.330Z,0
2018-07-16T00:22:35.068Z,0
2018-07-16T00:23:35.068Z,0
2018-07-16T00:24:34.807Z,0
2018-07-16T00:25:35.056Z,0
2018-07-16T00:26:35.051Z,0
2018-07-16T00:27:35.318Z,0
2018-07-16T00:28:35.299Z,0
2018-07-16T00:29:35.043Z,0
2018-07-16T00:30:35.308Z,0
2018-07-16T00:31:35.304Z,0
2018-07-16T00:32:34.786Z,0
2018-07-16T00:33:35.028Z,0
2018-07-16T00:34:35.274Z,0
2018-07-16T00:35:35.020Z,0
2018-07-16T00:36:35.265Z,0
2018-07-16T00:37:35.273Z,0
2018-07-16T00:38:35.261Z,0
2018-07-16T00:39:34.744Z,0
2018-07-16T00:40:35.247Z,0
2018-07-16T00:41:35.238Z,0
2018-07-16T00:42:35.252Z,0
2018-07-16T00:43:34.726Z,0
2018-07-16T00:44:35.297Z,0
2018-07-16T00:45:34.722Z,0
2018-07-16T00:46:35.236Z,0
2018-07-16T00:47:35.220Z,0
2018-07-16T00:48:35.222Z,0
2018-07-16T00:49:35.230Z,0
2018-07-16T00:50:35.203Z,0
2018-07-16T00:51:34.946Z,0
2018-07-16T00:52:35.198Z,0
2018-07-16T00:53:35.198Z,0
2018-07-16T00:54:34.933Z,0
2018-07-16T00:55:35.181Z,0
2018-07-16T00:56:35.270Z,0
2018-07-16T00:57:35.090Z,0
2018-07-16T00:58:35.203Z,0
2018-07-16T00:59:35.169Z,0
2018-07-16T01:00:35.168Z,0
2018-07-16T01:01:35.159Z,0
2018-07-16T01:02:35.149Z,0
2018-07-16T01:03:35.148Z,0
2018-07-16T01:04:35.147Z,0
2018-07-16T01:05:35.141Z,0
2018-07-16T01:06:35.132Z,0
2018-07-16T01:07:35.129Z,0
2018-07-16T01:08:34.627Z,0
2018-07-16T01:09:34.618Z,0
2018-07-16T01:10:35.122Z,0
2018-07-16T01:11:35.117Z,0
2018-07-16T01:12:35.121Z,0
2018-07-16T01:13:35.106Z,0
2018-07-16T01:14:35.099Z,0
2018-07-16T01:15:35.096Z,0
2018-07-16T01:16:34.836Z,0
2018-07-16T01:17:35.086Z,0
2018-07-16T01:18:34.580Z,0
2018-07-16T01:19:34.828Z,0
2018-07-16T01:20:35.076Z,0
2018-07-16T01:21:35.066Z,0
2018-07-16T01:22:35.060Z,0
2018-07-16T01:23:34.807Z,0
2018-07-16T01:24:34.550Z,0
2018-07-16T01:25:34.549Z,0
2018-07-16T01:26:35.072Z,0
2018-07-16T01:27:35.038Z,0
2018-07-16T01:28:34.532Z,0
2018-07-16T01:29:34.776Z,0
2018-07-16T01:30:35.023Z,0
2018-07-16T01:31:34.769Z,0
2018-07-16T01:32:35.023Z,0
2018-07-16T01:33:35.015Z,0
2018-07-16T01:34:35.004Z,0
2018-07-16T01:35:34.753Z,0
2018-07-16T01:36:35.003Z,0
2018-07-16T01:37:34.742Z,0
2018-07-16T01:38:34.999Z,0
2018-07-16T01:39:34.738Z,0
2018-07-16T01:40:34.473Z,0
2018-07-16T01:41:34.217Z,0
2018-07-16T01:42:34.463Z,0
2018-07-16T01:43:34.714Z,0
2018-07-16T01:44:34.710Z,0
2018-07-16T01:45:34.960Z,0
2018-07-16T01:46:34.711Z,0
2018-07-16T01:47:34.697Z,0
2018-07-16T01:48:34.945Z,0
2018-07-16T01:49:34.434Z,0
2018-07-16T01:50:34.933Z,0
2018-07-16T01:51:34.673Z,0
2018-07-16T01:52:34.670Z,0
2018-07-16T01:53:34.663Z,0
2018-07-16T01:54:34.654Z,0
2018-07-16T01:55:34.406Z,0
2018-07-16T01:56:34.900Z,0
2018-07-16T01:57:34.896Z,0
2018-07-16T01:58:34.894Z,0
2018-07-16T01:59:34.133Z,0
2018-07-16T02:00:34.883Z,0
2018-07-16T02:01:34.895Z,0
2018-07-16T02:02:34.876Z,0
2018-07-16T02:03:34.924Z,0
2018-07-16T02:04:34.918Z,0
2018-07-16T02:05:34.354Z,0
2018-07-16T02:06:34.605Z,0
2018-07-16T02:07:34.848Z,0
2018-07-16T02:08:34.854Z,0
2018-07-16T02:09:34.863Z,0
2018-07-16T02:10:34.834Z,0
2018-07-16T02:11:34.577Z,0
2018-07-16T02:12:34.317Z,0
2018-07-16T02:13:34.826Z,0
2018-07-16T02:14:34.871Z,0
2018-07-16T02:15:34.835Z,0
2018-07-16T02:16:34.826Z,0
2018-07-16T02:17:34.814Z,0
2018-07-16T02:18:34.796Z,0
2018-07-16T02:19:34.301Z,0
2018-07-16T02:20:34.792Z,0
2018-07-16T02:21:34.781Z,0
2018-07-16T02:22:34.522Z,0
2018-07-16T02:23:34.784Z,0
2018-07-16T02:24:34.512Z,0
2018-07-16T02:25:34.506Z,0
2018-07-16T02:26:34.752Z,0
2018-07-16T02:27:34.496Z,0
2018-07-16T02:28:34.493Z,0
2018-07-16T02:29:34.745Z,0
2018-07-16T02:30:34.743Z,0
2018-07-16T02:31:34.737Z,0
2018-07-16T02:32:34.729Z,0
2018-07-16T02:33:34.731Z,0
2018-07-16T02:34:34.752Z,0
2018-07-16T02:35:34.741Z,0
2018-07-16T02:36:34.725Z,0
2018-07-16T02:37:34.724Z,0
2018-07-16T02:38:34.729Z,0
2018-07-16T02:39:34.715Z,0
2018-07-16T02:40:34.437Z,0
2018-07-16T02:41:34.694Z,0
2018-07-16T02:42:34.684Z,0
2018-07-16T02:43:34.682Z,0
2018-07-16T02:44:34.752Z,0
2018-07-16T02:45:34.669Z,0
2018-07-16T02:46:34.682Z,0
2018-07-16T02:47:34.649Z,0
2018-07-16T02:48:34.406Z,0
2018-07-16T02:49:34.665Z,0
2018-07-16T02:50:34.384Z,0
2018-07-16T02:51:34.395Z,5
2018-07-16T02:52:34.387Z,5
2018-07-16T02:53:34.369Z,5
2018-07-16T02:54:34.629Z,5
2018-07-16T02:55:34.365Z,5
2018-07-16T02:56:34.857Z,5
2018-07-16T02:57:34.351Z,5
2018-07-16T02:58:34.365Z,5
2018-07-16T02:59:34.614Z,5
2018-07-16T03:00:34.590Z,10
2018-07-16T03:01:34.585Z,10
2018-07-16T03:02:34.577Z,10
2018-07-16T03:03:34.578Z,10
2018-07-16T03:04:34.356Z,10
2018-07-16T03:05:34.572Z,10
2018-07-16T03:06:34.581Z,15
2018-07-16T03:07:34.326Z,15
2018-07-16T03:08:34.560Z,15
2018-07-16T03:09:34.040Z,15
2018-07-16T03:10:34.297Z,15
2018-07-16T03:11:34.281Z,20
2018-07-16T03:12:34.547Z,20
2018-07-16T03:13:34.529Z,20
2018-07-16T03:14:34.521Z,20
2018-07-16T03:15:34.508Z,20
2018-07-16T03:16:34.007Z,25
2018-07-16T03:17:34.507Z,25
2018-07-16T03:18:34.255Z,25
2018-07-16T03:19:34.240Z,25
2018-07-16T03:20:34.234Z,30
2018-07-16T03:21:34.231Z,30
2018-07-16T03:22:33.979Z,30
2018-07-16T03:23:34.226Z,30
2018-07-16T03:24:34.469Z,30
2018-07-16T03:25:34.472Z,30
2018-07-16T03:26:34.201Z,30
2018-07-16T03:27:34.205Z,30
2018-07-16T03:28:34.447Z,35
2018-07-16T03:29:34.206Z,35
2018-07-16T03:30:34.195Z,35
2018-07-16T03:31:34.448Z,35
2018-07-16T03:32:34.439Z,40
2018-07-16T03:33:34.418Z,40
2018-07-16T03:34:34.163Z,45
2018-07-16T03:35:34.157Z,45
2018-07-16T03:36:34.412Z,50
2018-07-16T03:37:34.401Z,55
2018-07-16T03:38:34.152Z,60
2018-07-16T03:39:34.139Z,70
2018-07-16T03:40:34.388Z,80
2018-07-16T03:41:34.126Z,90
2018-07-16T03:42:34.383Z,100
2018-07-16T03:43:33.864Z,100
2018-07-16T03:44:34.365Z,105
2018-07-16T03:45:34.108Z,105
2018-07-16T03:46:34.101Z,110
2018-07-16T03:47:33.847Z,115
2018-07-16T03:48:34.348Z,120
2018-07-16T03:49:34.339Z,125
2018-07-16T03:50:34.088Z,125
2018-07-16T03:51:34.333Z,130
2018-07-16T03:52:34.328Z,135
2018-07-16T03:53:33.820Z,140
2018-07-16T03:54:34.499Z,145
2018-07-16T03:55:34.065Z,150
2018-07-16T03:56:34.069Z,155
2018-07-16T03:57:34.065Z,155
2018-07-16T03:58:33.819Z,165
2018-07-16T03:59:33.796Z,170
2018-07-16T04:00:34.301Z,175
2018-07-16T04:01:33.938Z,185
2018-07-16T04:02:34.319Z,185
2018-07-16T04:03:34.046Z,190
2018-07-16T04:04:33.786Z,195
2018-07-16T04:05:34.051Z,200
2018-07-16T04:06:34.037Z,210
2018-07-16T04:07:34.288Z,215
2018-07-16T04:08:34.041Z,220
2018-07-16T04:09:34.029Z,225
2018-07-16T04:10:33.787Z,230
2018-07-16T04:11:34.277Z,235
2018-07-16T04:12:34.032Z,240
2018-07-16T04:13:34.289Z,245
2018-07-16T04:14:34.537Z,250
2018-07-16T04:15:34.037Z,255
2018-07-16T04:16:34.033Z,260
2018-07-16T04:17:33.779Z,270
2018-07-16T04:18:34.031Z,270
2018-07-16T04:19:34.285Z,280
2018-07-16T04:20:34.287Z,285
2018-07-16T04:21:34.284Z,290
2018-07-16T04:22:34.296Z,290
2018-07-16T04:23:34.041Z,290
2018-07-16T04:24:34.296Z,300
2018-07-16T04:25:33.834Z,300
2018-07-16T04:26:34.301Z,310
2018-07-16T04:27:34.307Z,325
2018-07-16T04:28:34.301Z,335
2018-07-16T04:29:34.058Z,335
2018-07-16T04:30:34.340Z,345
2018-07-16T04:31:34.323Z,350
2018-07-16T04:32:34.072Z,360
2018-07-16T04:33:34.331Z,370
2018-07-16T04:34:34.334Z,370
2018-07-16T04:35:34.332Z,375
2018-07-16T04:36:34.354Z,380
2018-07-16T04:37:34.092Z,390
2018-07-16T04:38:33.844Z,400
2018-07-16T04:39:34.104Z,400
2018-07-16T04:40:33.864Z,405
2018-07-16T04:41:34.368Z,410
2018-07-16T04:42:34.373Z,415
2018-07-16T04:43:34.381Z,410
2018-07-16T04:44:33.884Z,420
2018-07-16T04:45:34.397Z,425
2018-07-16T04:46:34.152Z,435
2018-07-16T04:47:34.157Z,450
2018-07-16T04:48:34.161Z,465
2018-07-16T04:49:34.418Z,470
2018-07-16T04:50:34.433Z,475
2018-07-16T04:51:34.498Z,480
2018-07-16T04:52:34.209Z,475
2018-07-16T04:53:34.451Z,485
2018-07-16T04:54:34.227Z,495
2018-07-16T04:55:34.214Z,510
2018-07-16T04:56:34.230Z,525
2018-07-16T04:57:34.492Z,535
2018-07-16T04:58:34.499Z,535
2018-07-16T04:59:34.272Z,535
2018-07-16T05:00:34.275Z,525
2018-07-16T05:01:34.536Z,525
2018-07-16T05:02:34.279Z,530
2018-07-16T05:03:34.289Z,540
2018-07-16T05:04:34.571Z,555
2018-07-16T05:05:34.561Z,565
2018-07-16T05:06:34.568Z,585
2018-07-16T05:07:34.129Z,595
2018-07-16T05:08:34.079Z,610
2018-07-16T05:09:34.635Z,625
2018-07-16T05:10:34.659Z,630
2018-07-16T05:11:34.618Z,635
2018-07-16T05:12:34.634Z,645
2018-07-16T05:13:34.636Z,650
2018-07-16T05:14:34.764Z,655
2018-07-16T05:15:34.427Z,660
2018-07-16T05:16:34.419Z,655
2018-07-16T05:17:34.678Z,670
2018-07-16T05:18:35.447Z,680
2018-07-16T05:19:34.446Z,680
2018-07-16T05:20:34.714Z,700
2018-07-16T05:21:34.217Z,705
2018-07-16T05:22:34.504Z,710
2018-07-16T05:23:34.752Z,720
2018-07-16T05:24:34.757Z,730
2018-07-16T05:25:34.780Z,730
2018-07-16T05:26:34.266Z,730
2018-07-16T05:27:34.544Z,730
2018-07-16T05:28:34.540Z,730
2018-07-16T05:29:34.310Z,735
2018-07-16T05:30:34.815Z,745
2018-07-16T05:31:35.153Z,755
2018-07-16T05:32:35.905Z,750
2018-07-16T05:33:34.859Z,750
2018-07-16T05:34:34.866Z,750
2018-07-16T05:35:34.884Z,760
2018-07-16T05:36:34.896Z,770
2018-07-16T05:37:34.653Z,780
2018-07-16T05:38:34.917Z,800
2018-07-16T05:39:34.936Z,800
2018-07-16T05:40:34.932Z,805
2018-07-16T05:41:34.708Z,810
2018-07-16T05:42:34.968Z,810
2018-07-16T05:43:34.975Z,810
2018-07-16T05:44:35.006Z,820
2018-07-16T05:45:35.004Z,840
2018-07-16T05:46:34.760Z,850
2018-07-16T05:47:35.025Z,875
2018-07-16T05:48:35.802Z,890
2018-07-16T05:49:35.066Z,910
2018-07-16T05:50:35.062Z,905
2018-07-16T05:51:34.566Z,910
2018-07-16T05:52:35.104Z,905
2018-07-16T05:53:35.125Z,905
2018-07-16T05:54:35.104Z,910
2018-07-16T05:55:34.878Z,905
2018-07-16T05:56:34.373Z,905
2018-07-16T05:57:35.151Z,905
2018-07-16T05:58:35.160Z,920
2018-07-16T05:59:35.928Z,935
2018-07-16T06:00:34.929Z,955
2018-07-16T06:01:35.206Z,965
2018-07-16T06:02:35.206Z,980
2018-07-16T06:03:35.218Z,1000
2018-07-16T06:04:35.297Z,1020
2018-07-16T06:05:35.245Z,1010
2018-07-16T06:06:35.254Z,1005
2018-07-16T06:07:35.013Z,1010
2018-07-16T06:08:35.280Z,1025
2018-07-16T06:09:35.041Z,1035
2018-07-16T06:10:35.053Z,1025
2018-07-16T06:11:34.818Z,1020
2018-07-16T06:12:35.333Z,1020
2018-07-16T06:13:35.339Z,1025
2018-07-16T06:14:35.338Z,1030
2018-07-16T06:15:35.114Z,1045
2018-07-16T06:16:35.139Z,1050
2018-07-16T06:17:35.145Z,1055
2018-07-16T06:18:35.151Z,1070
2018-07-16T06:19:35.164Z,1080
2018-07-16T06:20:35.432Z,1100
2018-07-16T06:21:35.200Z,1110
2018-07-16T06:22:35.465Z,1125
2018-07-16T06:23:35.481Z,1145
2018-07-16T06:24:35.485Z,1145
2018-07-16T06:25:35.506Z,1155
2018-07-16T06:26:35.262Z,1155
2018-07-16T06:27:35.025Z,1165
2018-07-16T06:28:35.286Z,1155
2018-07-16T06:29:35.570Z,1160
2018-07-16T06:30:35.317Z,1160
2018-07-16T06:31:35.657Z,1175
2018-07-16T06:32:36.220Z,1185
2018-07-16T06:33:35.368Z,1200
2018-07-16T06:34:35.645Z,1220
2018-07-16T06:35:35.396Z,1225
2018-07-16T06:36:35.398Z,1225
2018-07-16T06:37:35.684Z,1225
2018-07-16T06:38:35.429Z,1230
2018-07-16T06:39:35.648Z,1235
2018-07-16T06:40:36.245Z,1250
2018-07-16T06:41:38.949Z,1260
2018-07-16T06:42:35.747Z,1260
2018-07-16T06:43:35.515Z,1260
2018-07-16T06:44:35.516Z,1270
2018-07-16T06:45:35.537Z,1280
2018-07-16T06:46:35.300Z,1285
2018-07-16T06:47:35.566Z,1290
2018-07-16T06:48:35.869Z,1485
2018-07-16T06:49:35.594Z,1745
2018-07-16T06:50:35.355Z,1760
2018-07-16T06:51:35.621Z,1780
2018-07-16T06:52:35.896Z,1790
2018-07-16T06:53:35.906Z,1800
2018-07-16T06:54:35.664Z,1810
2018-07-16T06:55:35.690Z,1825
2018-07-16T06:56:35.951Z,1845
2018-07-16T06:57:35.718Z,1860
2018-07-16T06:58:35.999Z,1880
2018-07-16T06:59:35.754Z,1885
2018-07-16T07:00:36.026Z,1900
2018-07-16T07:01:36.033Z,1915
2018-07-16T07:02:35.546Z,1940
2018-07-16T07:03:35.560Z,1955
2018-07-16T07:04:35.845Z,1940
2018-07-16T07:05:35.850Z,1955
2018-07-16T07:06:36.141Z,1990
2018-07-16T07:07:36.151Z,1990
2018-07-16T07:08:36.178Z,2015
2018-07-16T07:09:35.934Z,1460
2018-07-16T07:11:35.966Z,1445
2018-07-16T07:12:36.231Z,1455
2018-07-16T07:13:36.249Z,1465
2018-07-16T07:14:36.004Z,1485
2018-07-16T07:15:36.279Z,1490
2018-07-16T07:16:36.042Z,1500
2018-07-16T07:17:36.060Z,1510
2018-07-16T07:18:36.342Z,1515
2018-07-16T07:19:36.091Z,1515
2018-07-16T07:20:36.426Z,1515
2018-07-16T07:21:36.129Z,1525
2018-07-16T07:22:36.399Z,1520
2018-07-16T07:23:36.413Z,1525
2018-07-16T07:24:35.928Z,1540
2018-07-16T07:25:36.922Z,1550
2018-07-16T07:26:36.471Z,1540
2018-07-16T07:27:36.502Z,1525
2018-07-16T07:28:36.536Z,1510
2018-07-16T07:29:36.514Z,1505
2018-07-16T07:30:36.571Z,1515
2018-07-16T07:31:36.311Z,1520
2018-07-16T07:32:36.326Z,1520
2018-07-16T07:33:36.582Z,1535
2018-07-16T07:34:36.597Z,1560
2018-07-16T07:35:37.677Z,1565
2018-07-16T07:36:36.399Z,1570
2018-07-16T07:37:36.650Z,1570
2018-07-16T07:38:36.665Z,1590
2018-07-16T07:39:36.429Z,1600
2018-07-16T07:40:36.445Z,1610
2018-07-16T07:41:36.708Z,1620
2018-07-16T07:42:36.726Z,1640
2018-07-16T07:43:36.738Z,1665
2018-07-16T07:44:36.762Z,1685
2018-07-16T07:45:36.775Z,1685
2018-07-16T07:46:36.794Z,1690
2018-07-16T07:47:36.719Z,1695
2018-07-16T07:48:36.844Z,1715
2018-07-16T07:49:36.841Z,1725
2018-07-16T07:50:36.881Z,1750
2018-07-16T07:51:37.508Z,1780
2018-07-16T07:52:36.923Z,1785
2018-07-16T07:53:36.911Z,1795
2018-07-16T07:54:38.028Z,1815
2018-07-16T07:55:36.848Z,1815
2018-07-16T07:56:39.619Z,1810
2018-07-16T07:57:36.720Z,1795
2018-07-16T07:58:37.000Z,1790
2018-07-16T07:59:37.006Z,1810
2018-07-16T08:00:36.776Z,1820
2018-07-16T08:01:36.791Z,1840
2018-07-16T08:02:36.811Z,1840
2018-07-16T08:03:37.291Z,1850
2018-07-16T08:04:36.590Z,1870
2018-07-16T08:05:36.849Z,1875
2018-07-16T08:06:37.117Z,1880
2018-07-16T08:07:36.874Z,1890
2018-07-16T08:08:36.893Z,1895
2018-07-16T08:09:36.706Z,1880
2018-07-16T08:10:37.803Z,1885
2018-07-16T08:11:36.719Z,1895
2018-07-16T08:12:37.261Z,1910
2018-07-16T08:13:37.350Z,1905
2018-07-16T08:14:37.332Z,1925
2018-07-16T08:15:37.279Z,1940
2018-07-16T08:16:37.093Z,1940
2018-07-16T08:17:37.360Z,1935
2018-07-16T08:18:38.791Z,1950
2018-07-16T08:19:37.368Z,1940
2018-07-16T08:20:37.119Z,1950
2018-07-16T08:21:37.430Z,1980
2018-07-16T08:22:37.136Z,1995
2018-07-16T08:23:37.437Z,2005
2018-07-16T08:24:37.210Z,1990
2018-07-16T08:25:37.745Z,1980
2018-07-16T08:26:38.957Z,1960
2018-07-16T08:27:37.292Z,1950
2018-07-16T08:28:37.491Z,1965
2018-07-16T08:29:37.281Z,1985
2018-07-16T08:30:37.523Z,2000
2018-07-16T08:31:37.077Z,2005
2018-07-16T08:32:37.622Z,2000
2018-07-16T08:33:38.573Z,2070
2018-07-16T08:34:37.882Z,2060
2018-07-16T08:35:37.612Z,2065
2018-07-16T08:36:37.386Z,2060
2018-07-16T08:37:37.689Z,2075
2018-07-16T08:38:37.397Z,2070
2018-07-16T08:39:37.676Z,2075
2018-07-16T08:40:37.462Z,2075
2018-07-16T08:41:38.030Z,2085
2018-07-16T08:42:38.013Z,2080
2018-07-16T08:43:37.479Z,2095
2018-07-16T08:44:37.219Z,2095
2018-07-16T08:45:37.726Z,2115
2018-07-16T08:46:37.775Z,2125
2018-07-16T08:47:37.753Z,2120
2018-07-16T08:48:37.763Z,2105
2018-07-16T08:49:37.277Z,2085
2018-07-16T08:50:37.801Z,2075
2018-07-16T08:51:37.865Z,2055
2018-07-16T08:52:37.611Z,2040
2018-07-16T08:53:37.916Z,2045
2018-07-16T08:54:37.853Z,2075
2018-07-16T08:55:37.860Z,2105
2018-07-16T08:56:37.888Z,2115
2018-07-16T08:57:37.899Z,2065
2018-07-16T08:58:37.936Z,1355
2018-07-16T08:59:37.924Z,500
2018-07-16T09:00:37.683Z,325
2018-07-16T09:01:37.958Z,320
2018-07-16T09:02:37.964Z,320
2018-07-16T09:03:37.733Z,320
2018-07-16T09:04:37.992Z,350
2018-07-16T09:05:37.785Z,350
2018-07-16T09:06:38.022Z,345
2018-07-16T09:07:37.786Z,340
2018-07-16T09:08:38.052Z,325
2018-07-16T09:09:37.551Z,320
2018-07-16T09:11:40.634Z,325
2018-07-16T09:12:38.086Z,330
2018-07-16T09:13:38.758Z,330
2018-07-16T09:14:38.131Z,340
2018-07-16T09:15:37.874Z,350
2018-07-16T09:16:37.873Z,375
2018-07-16T09:17:38.143Z,400
2018-07-16T09:18:37.893Z,415
2018-07-16T09:19:38.145Z,430
2018-07-16T09:20:38.162Z,455
2018-07-16T09:21:37.928Z,455
2018-07-16T09:22:38.193Z,440
2018-07-16T09:23:37.988Z,420
2018-07-16T09:24:38.187Z,410
2018-07-16T09:25:38.304Z,400
2018-07-16T09:26:38.231Z,385
2018-07-16T09:27:38.206Z,355
2018-07-16T09:28:38.217Z,340
2018-07-16T09:29:37.976Z,330
2018-07-16T09:30:38.235Z,325
2018-07-16T09:31:38.237Z,320
2018-07-16T09:32:37.783Z,320
2018-07-16T09:33:37.997Z,320
2018-07-16T09:34:37.760Z,320
2018-07-16T09:35:38.010Z,315
2018-07-16T09:36:38.032Z,315
2018-07-16T09:37:38.026Z,315
2018-07-16T09:38:37.917Z,320
2018-07-16T09:39:37.988Z,315
2018-07-16T09:40:38.283Z,315
2018-07-16T09:41:38.065Z,315
2018-07-16T09:42:37.793Z,310
2018-07-16T09:43:38.065Z,315
2018-07-16T09:44:38.774Z,315
2018-07-16T09:45:38.313Z,315
2018-07-16T09:46:38.320Z,310
2018-07-16T09:47:38.085Z,310
2018-07-16T09:48:38.447Z,310
2018-07-16T09:49:38.334Z,310
2018-07-16T09:50:38.347Z,310
2018-07-16T09:51:38.352Z,310
2018-07-16T09:52:38.345Z,310
2018-07-16T09:53:38.355Z,310
2018-07-16T09:54:38.107Z,310
2018-07-16T09:55:37.854Z,310
2018-07-16T09:56:38.307Z,305
2018-07-16T09:57:37.862Z,305
2018-07-16T09:58:38.366Z,300
2018-07-16T09:59:38.377Z,300
2018-07-16T10:00:38.404Z,295
2018-07-16T10:01:38.373Z,295
2018-07-16T10:02:38.138Z,295
2018-07-16T10:03:38.138Z,295
2018-07-16T10:04:38.442Z,300
2018-07-16T10:05:38.455Z,300
2018-07-16T10:06:38.400Z,305
2018-07-16T10:07:38.415Z,310
2018-07-16T10:08:38.404Z,310
2018-07-16T10:09:38.234Z,300
2018-07-16T10:10:38.288Z,305
2018-07-16T10:11:37.990Z,300
2018-07-16T10:12:38.172Z,305
2018-07-16T10:13:38.416Z,305
2018-07-16T10:14:38.210Z,310
2018-07-16T10:15:38.178Z,310
2018-07-16T10:16:38.201Z,310
2018-07-16T10:17:38.172Z,305
2018-07-16T10:18:38.431Z,305
2018-07-16T10:19:38.441Z,300
2018-07-16T10:20:39.056Z,310
2018-07-16T10:21:38.496Z,315
2018-07-16T10:22:38.200Z,310
2018-07-16T10:23:38.449Z,305
2018-07-16T10:24:38.451Z,295
2018-07-16T10:25:37.944Z,285
2018-07-16T10:26:38.245Z,285
2018-07-16T10:27:38.478Z,280
2018-07-16T10:28:38.207Z,275
2018-07-16T10:29:38.461Z,270
2018-07-16T10:30:38.214Z,270
2018-07-16T10:31:38.463Z,270
2018-07-16T10:32:38.221Z,270
2018-07-16T10:33:38.514Z,270
2018-07-16T10:34:38.493Z,275
2018-07-16T10:35:38.255Z,270
2018-07-16T10:36:38.248Z,270
2018-07-16T10:37:38.229Z,270
2018-07-16T10:38:38.270Z,270
2018-07-16T10:39:38.643Z,275
2018-07-16T10:40:38.512Z,270
2018-07-16T10:41:38.501Z,280
2018-07-16T10:42:37.999Z,285
2018-07-16T10:43:38.533Z,280
2018-07-16T10:44:38.259Z,280
2018-07-16T10:45:38.276Z,280
2018-07-16T10:46:38.519Z,280
2018-07-16T10:47:38.513Z,275
2018-07-16T10:48:38.515Z,270
2018-07-16T10:49:38.766Z,275
2018-07-16T10:50:38.524Z,280
2018-07-16T10:51:38.539Z,280
2018-07-16T10:52:38.284Z,280
2018-07-16T10:53:38.570Z,270
2018-07-16T10:54:38.543Z,270
2018-07-16T10:55:38.543Z,280
2018-07-16T10:56:38.562Z,290
2018-07-16T10:57:38.299Z,295
2018-07-16T10:58:38.568Z,310
2018-07-16T10:59:38.567Z,320
2018-07-16T11:00:38.592Z,325
2018-07-16T11:01:38.573Z,335
2018-07-16T11:02:38.562Z,330
2018-07-16T11:03:38.594Z,325
2018-07-16T11:04:38.577Z,315
2018-07-16T11:05:38.481Z,305
2018-07-16T11:06:38.575Z,300
2018-07-16T11:07:38.592Z,295
2018-07-16T11:08:38.587Z,300
2018-07-16T11:09:38.604Z,310
2018-07-16T11:10:38.594Z,315
2018-07-16T11:11:38.589Z,320
2018-07-16T11:12:38.606Z,325
2018-07-16T11:13:38.607Z,305
2018-07-16T11:14:38.356Z,290
2018-07-16T11:15:38.609Z,280
2018-07-16T11:16:38.620Z,270
2018-07-16T11:17:38.362Z,270
2018-07-16T11:18:38.381Z,265
2018-07-16T11:19:38.373Z,265
2018-07-16T11:20:38.140Z,265
2018-07-16T11:21:38.432Z,260
2018-07-16T11:22:38.924Z,250
2018-07-16T11:23:38.637Z,245
2018-07-16T11:24:38.644Z,245
2018-07-16T11:25:38.641Z,250
2018-07-16T11:26:38.660Z,250
2018-07-16T11:27:38.394Z,245
2018-07-16T11:28:38.651Z,250
2018-07-16T11:29:38.648Z,250
2018-07-16T11:30:38.665Z,250
2018-07-16T11:31:38.670Z,245
2018-07-16T11:32:38.691Z,245
2018-07-16T11:33:38.982Z,245
2018-07-16T11:34:38.679Z,245
2018-07-16T11:35:39.167Z,250
2018-07-16T11:36:38.415Z,250
2018-07-16T11:37:38.423Z,255
2018-07-16T11:38:38.428Z,260
2018-07-16T11:39:38.457Z,260
2018-07-16T11:40:38.715Z,260
2018-07-16T11:41:38.438Z,260
2018-07-16T11:42:38.690Z,260
2018-07-16T11:43:38.452Z,260
2018-07-16T11:44:38.727Z,265
2018-07-16T11:45:38.715Z,265
2018-07-16T11:46:38.726Z,260
2018-07-16T11:47:38.456Z,265
2018-07-16T11:48:38.249Z,270
2018-07-16T11:49:38.441Z,265
2018-07-16T11:50:38.479Z,260
2018-07-16T11:51:38.473Z,260
2018-07-16T11:52:38.480Z,255
2018-07-16T11:53:38.727Z,250
2018-07-16T11:54:38.733Z,250
2018-07-16T11:55:38.737Z,255
2018-07-16T11:56:38.229Z,255
2018-07-16T11:57:38.232Z,250
2018-07-16T11:58:38.750Z,250
2018-07-16T11:59:38.751Z,255
2018-07-16T12:00:38.748Z,260
2018-07-16T12:01:38.778Z,260
2018-07-16T12:02:38.500Z,255
2018-07-16T12:03:39.427Z,250
2018-07-16T12:04:38.506Z,250
2018-07-16T12:05:38.787Z,245
2018-07-16T12:06:38.771Z,245
2018-07-16T12:07:38.512Z,245
2018-07-16T12:08:38.770Z,245
2018-07-16T12:09:38.772Z,245
2018-07-16T12:10:38.787Z,245
2018-07-16T12:11:38.796Z,250
2018-07-16T12:12:38.977Z,255
2018-07-16T12:13:38.797Z,255
2018-07-16T12:14:38.550Z,255
2018-07-16T12:15:38.544Z,255
2018-07-16T12:16:38.541Z,255
2018-07-16T12:17:38.550Z,255
2018-07-16T12:18:38.818Z,255
2018-07-16T12:19:38.627Z,255
2018-07-16T12:20:39.118Z,260
2018-07-16T12:21:38.305Z,270
2018-07-16T12:22:38.814Z,290
2018-07-16T12:23:38.588Z,290
2018-07-16T12:24:38.593Z,295
2018-07-16T12:25:38.835Z,290
2018-07-16T12:26:38.847Z,295
2018-07-16T12:27:38.587Z,285
2018-07-16T12:28:38.842Z,270
2018-07-16T12:29:38.613Z,265
2018-07-16T12:30:38.853Z,260
2018-07-16T12:31:38.873Z,245
2018-07-16T12:32:38.865Z,240
2018-07-16T12:33:38.374Z,235
2018-07-16T12:34:38.622Z,235
2018-07-16T12:35:38.625Z,230
2018-07-16T12:36:38.617Z,235
2018-07-16T12:37:38.870Z,240
2018-07-16T12:38:38.879Z,240
2018-07-16T12:39:38.631Z,245
2018-07-16T12:40:38.900Z,245
2018-07-16T12:41:39.780Z,250
2018-07-16T12:42:38.375Z,255
2018-07-16T12:43:38.937Z,255
2018-07-16T12:44:38.675Z,255
2018-07-16T12:45:38.696Z,255
2018-07-16T12:46:38.957Z,250
2018-07-16T12:47:38.679Z,250
2018-07-16T12:48:38.931Z,250
2018-07-16T12:49:38.905Z,245
2018-07-16T12:50:38.676Z,240
2018-07-16T12:51:38.677Z,240
2018-07-16T12:52:38.679Z,240
2018-07-16T12:53:38.412Z,240
2018-07-16T12:54:38.670Z,235
2018-07-16T12:55:39.506Z,230
2018-07-16T12:56:38.683Z,235
2018-07-16T12:57:38.683Z,230
2018-07-16T12:58:38.706Z,230
2018-07-16T12:59:38.993Z,225
2018-07-16T13:00:38.946Z,220
2018-07-16T13:01:38.950Z,215
2018-07-16T13:02:38.962Z,215
2018-07-16T13:03:38.959Z,210
2018-07-16T13:04:38.726Z,210
2018-07-16T13:05:38.724Z,210
2018-07-16T13:06:38.965Z,210
2018-07-16T13:07:38.971Z,215
2018-07-16T13:08:38.992Z,225
2018-07-16T13:09:38.998Z,225
2018-07-16T13:10:38.987Z,225
2018-07-16T13:11:38.766Z,230
2018-07-16T13:12:39.013Z,235
2018-07-16T13:13:38.987Z,240
2018-07-16T13:14:39.001Z,245
2018-07-16T13:15:38.996Z,245
2018-07-16T13:16:39.015Z,245
2018-07-16T13:17:39.002Z,250
2018-07-16T13:18:39.022Z,250
2018-07-16T13:19:38.779Z,250
2018-07-16T13:20:39.041Z,240
2018-07-16T13:21:39.057Z,235
2018-07-16T13:22:38.774Z,230
2018-07-16T13:23:39.067Z,230
2018-07-16T13:24:39.021Z,225
2018-07-16T13:25:39.026Z,225
2018-07-16T13:26:38.775Z,225
2018-07-16T13:27:39.043Z,220
2018-07-16T13:28:39.039Z,220
2018-07-16T13:29:38.542Z,225
2018-07-16T13:30:38.795Z,225
2018-07-16T13:31:39.045Z,225
2018-07-16T13:32:38.812Z,225
2018-07-16T13:33:38.799Z,225
2018-07-16T13:34:38.803Z,225
2018-07-16T13:35:39.061Z,225
2018-07-16T13:36:38.826Z,225
2018-07-16T13:37:39.083Z,225
2018-07-16T13:38:39.088Z,225
2018-07-16T13:39:39.083Z,220
2018-07-16T13:40:39.091Z,225
2018-07-16T13:41:39.123Z,220
2018-07-16T13:42:39.144Z,220
2018-07-16T13:43:39.096Z,225
2018-07-16T13:44:38.595Z,230
2018-07-16T13:45:39.119Z,235
2018-07-16T13:46:39.684Z,240
2018-07-16T13:47:38.923Z,245
2018-07-16T13:48:38.866Z,245
2018-07-16T13:49:39.309Z,250
2018-07-16T13:50:38.866Z,250
2018-07-16T13:51:39.120Z,260
2018-07-16T13:52:39.219Z,260
2018-07-16T13:53:39.124Z,260
2018-07-16T13:54:39.391Z,245
2018-07-16T13:55:39.328Z,240